sensor_id;sensor_type;location;lat;lon;timestamp;P1;durP1;ratioP1;P2;durP2;ratioP2
59042;SDS011;44826;51.596;5.624;2024-03-25T00:01:59;13.10;;;2.17;;
59042;SDS011;44826;51.596;5.624;2024-03-25T00:04:24;12.52;;;2.40;;
59042;SDS011;44826;51.596;5.624;2024-03-25T00:06:49;7.45;;;2.00;;
59042;SDS011;44826;51.596;5.624;2024-03-25T00:09:16;5.60;;;1.80;;
59042;SDS011;44826;51.596;5.624;2024-03-25T00:11:42;6.13;;;2.10;;
59042;SDS011;44826;51.596;5.624;2024-03-25T00:14:07;8.00;;;1.92;;
59042;SDS011;44826;51.596;5.624;2024-03-25T00:16:33;10.77;;;2.28;;
59042;SDS011;44826;51.596;5.624;2024-03-25T00:18:59;6.30;;;1.90;;
59042;SDS011;44826;51.596;5.624;2024-03-25T00:21:25;9.00;;;2.03;;
59042;SDS011;44826;51.596;5.624;2024-03-25T00:23:50;7.70;;;2.22;;
59042;SDS011;44826;51.596;5.624;2024-03-25T00:26:15;9.85;;;1.83;;
59042;SDS011;44826;51.596;5.624;2024-03-25T00:28:41;8.18;;;1.95;;
59042;SDS011;44826;51.596;5.624;2024-03-25T00:31:06;8.40;;;1.88;;
59042;SDS011;44826;51.596;5.624;2024-03-25T00:33:31;9.02;;;1.83;;
59042;SDS011;44826;51.596;5.624;2024-03-25T00:35:57;10.48;;;2.08;;
59042;SDS011;44826;51.596;5.624;2024-03-25T00:38:23;8.23;;;1.73;;
59042;SDS011;44826;51.596;5.624;2024-03-25T00:40:49;11.15;;;2.10;;
59042;SDS011;44826;51.596;5.624;2024-03-25T00:43:15;7.18;;;1.92;;
59042;SDS011;44826;51.596;5.624;2024-03-25T00:45:40;10.30;;;2.20;;
59042;SDS011;44826;51.596;5.624;2024-03-25T00:48:06;8.03;;;1.90;;
59042;SDS011;44826;51.596;5.624;2024-03-25T00:50:32;9.63;;;1.90;;
59042;SDS011;44826;51.596;5.624;2024-03-25T00:52:57;11.47;;;2.33;;
59042;SDS011;44826;51.596;5.624;2024-03-25T00:55:23;11.20;;;2.10;;
59042;SDS011;44826;51.596;5.624;2024-03-25T00:57:48;7.77;;;1.60;;
59042;SDS011;44826;51.596;5.624;2024-03-25T01:00:14;9.37;;;1.93;;
59042;SDS011;44826;51.596;5.624;2024-03-25T01:02:40;7.10;;;2.00;;
59042;SDS011;44826;51.596;5.624;2024-03-25T01:05:06;7.83;;;2.10;;
59042;SDS011;44826;51.596;5.624;2024-03-25T01:07:32;9.03;;;2.03;;
59042;SDS011;44826;51.596;5.624;2024-03-25T01:09:57;7.60;;;2.40;;
59042;SDS011;44826;51.596;5.624;2024-03-25T01:12:23;9.70;;;2.20;;
59042;SDS011;44826;51.596;5.624;2024-03-25T01:14:49;7.20;;;1.70;;
59042;SDS011;44826;51.596;5.624;2024-03-25T01:17:14;9.23;;;1.63;;
59042;SDS011;44826;51.596;5.624;2024-03-25T01:19:40;8.30;;;1.90;;
59042;SDS011;44826;51.596;5.624;2024-03-25T01:22:05;5.90;;;1.67;;
59042;SDS011;44826;51.596;5.624;2024-03-25T01:24:30;6.47;;;1.90;;
59042;SDS011;44826;51.596;5.624;2024-03-25T01:26:56;8.23;;;1.80;;
59042;SDS011;44826;51.596;5.624;2024-03-25T01:29:21;5.90;;;1.47;;
59042;SDS011;44826;51.596;5.624;2024-03-25T01:31:46;7.80;;;1.73;;
59042;SDS011;44826;51.596;5.624;2024-03-25T01:34:12;6.43;;;1.63;;
59042;SDS011;44826;51.596;5.624;2024-03-25T01:36:37;8.87;;;1.70;;
59042;SDS011;44826;51.596;5.624;2024-03-25T01:39:04;10.93;;;2.07;;
59042;SDS011;44826;51.596;5.624;2024-03-25T01:41:30;9.87;;;1.90;;
59042;SDS011;44826;51.596;5.624;2024-03-25T01:43:55;9.50;;;2.00;;
59042;SDS011;44826;51.596;5.624;2024-03-25T01:46:20;9.10;;;2.03;;
59042;SDS011;44826;51.596;5.624;2024-03-25T01:48:46;11.53;;;2.13;;
59042;SDS011;44826;51.596;5.624;2024-03-25T01:51:13;9.20;;;2.27;;
59042;SDS011;44826;51.596;5.624;2024-03-25T01:53:41;11.43;;;2.00;;
59042;SDS011;44826;51.596;5.624;2024-03-25T01:56:07;8.67;;;2.00;;
59042;SDS011;44826;51.596;5.624;2024-03-25T01:58:35;7.90;;;1.90;;
59042;SDS011;44826;51.596;5.624;2024-03-25T02:01:01;8.87;;;2.00;;
59042;SDS011;44826;51.596;5.624;2024-03-25T02:03:28;7.53;;;1.90;;
59042;SDS011;44826;51.596;5.624;2024-03-25T02:05:55;9.50;;;2.17;;
59042;SDS011;44826;51.596;5.624;2024-03-25T02:08:22;7.80;;;1.93;;
59042;SDS011;44826;51.596;5.624;2024-03-25T02:10:47;8.50;;;1.77;;
59042;SDS011;44826;51.596;5.624;2024-03-25T02:13:14;8.47;;;1.90;;
59042;SDS011;44826;51.596;5.624;2024-03-25T02:15:40;8.57;;;1.80;;
59042;SDS011;44826;51.596;5.624;2024-03-25T02:18:06;9.23;;;1.87;;
59042;SDS011;44826;51.596;5.624;2024-03-25T02:20:31;8.53;;;1.83;;
59042;SDS011;44826;51.596;5.624;2024-03-25T02:22:57;6.30;;;1.60;;
59042;SDS011;44826;51.596;5.624;2024-03-25T02:25:22;9.10;;;1.80;;
59042;SDS011;44826;51.596;5.624;2024-03-25T02:27:48;7.73;;;1.90;;
59042;SDS011;44826;51.596;5.624;2024-03-25T02:30:13;9.47;;;1.70;;
59042;SDS011;44826;51.596;5.624;2024-03-25T02:32:39;8.93;;;2.37;;
59042;SDS011;44826;51.596;5.624;2024-03-25T02:35:06;8.70;;;1.87;;
59042;SDS011;44826;51.596;5.624;2024-03-25T02:37:35;7.93;;;1.57;;
59042;SDS011;44826;51.596;5.624;2024-03-25T02:40:01;6.27;;;1.83;;
59042;SDS011;44826;51.596;5.624;2024-03-25T02:42:30;7.77;;;1.70;;
59042;SDS011;44826;51.596;5.624;2024-03-25T02:44:56;9.07;;;2.00;;
59042;SDS011;44826;51.596;5.624;2024-03-25T02:47:22;8.13;;;1.73;;
59042;SDS011;44826;51.596;5.624;2024-03-25T02:49:47;7.63;;;1.67;;
59042;SDS011;44826;51.596;5.624;2024-03-25T02:52:13;9.33;;;1.70;;
59042;SDS011;44826;51.596;5.624;2024-03-25T02:54:39;9.93;;;1.90;;
59042;SDS011;44826;51.596;5.624;2024-03-25T02:57:04;6.80;;;1.67;;
59042;SDS011;44826;51.596;5.624;2024-03-25T02:59:29;6.83;;;1.63;;
59042;SDS011;44826;51.596;5.624;2024-03-25T03:01:55;11.30;;;1.80;;
59042;SDS011;44826;51.596;5.624;2024-03-25T03:04:20;7.43;;;1.50;;
59042;SDS011;44826;51.596;5.624;2024-03-25T03:06:45;8.10;;;1.57;;
59042;SDS011;44826;51.596;5.624;2024-03-25T03:09:11;6.73;;;1.63;;
59042;SDS011;44826;51.596;5.624;2024-03-25T03:11:36;7.67;;;1.77;;
59042;SDS011;44826;51.596;5.624;2024-03-25T03:14:01;6.47;;;2.23;;
59042;SDS011;44826;51.596;5.624;2024-03-25T03:16:27;7.33;;;1.67;;
59042;SDS011;44826;51.596;5.624;2024-03-25T03:18:54;12.00;;;1.80;;
59042;SDS011;44826;51.596;5.624;2024-03-25T03:21:19;9.97;;;2.23;;
59042;SDS011;44826;51.596;5.624;2024-03-25T03:23:44;9.27;;;1.70;;
59042;SDS011;44826;51.596;5.624;2024-03-25T03:26:10;7.20;;;1.57;;
59042;SDS011;44826;51.596;5.624;2024-03-25T03:28:35;7.83;;;1.60;;
59042;SDS011;44826;51.596;5.624;2024-03-25T03:31:00;9.67;;;1.70;;
59042;SDS011;44826;51.596;5.624;2024-03-25T03:33:26;7.87;;;1.43;;
59042;SDS011;44826;51.596;5.624;2024-03-25T03:35:51;7.87;;;1.37;;
59042;SDS011;44826;51.596;5.624;2024-03-25T03:38:17;6.97;;;2.13;;
59042;SDS011;44826;51.596;5.624;2024-03-25T03:40:42;11.43;;;1.80;;
59042;SDS011;44826;51.596;5.624;2024-03-25T03:43:07;7.30;;;1.60;;
59042;SDS011;44826;51.596;5.624;2024-03-25T03:45:33;5.97;;;1.40;;
59042;SDS011;44826;51.596;5.624;2024-03-25T03:48:00;5.47;;;1.60;;
59042;SDS011;44826;51.596;5.624;2024-03-25T03:50:26;6.33;;;1.73;;
59042;SDS011;44826;51.596;5.624;2024-03-25T03:52:51;6.73;;;1.80;;
59042;SDS011;44826;51.596;5.624;2024-03-25T03:55:16;6.27;;;1.70;;
59042;SDS011;44826;51.596;5.624;2024-03-25T03:57:42;7.80;;;1.60;;
59042;SDS011;44826;51.596;5.624;2024-03-25T04:00:08;8.13;;;1.77;;
59042;SDS011;44826;51.596;5.624;2024-03-25T04:02:34;4.40;;;1.50;;
59042;SDS011;44826;51.596;5.624;2024-03-25T04:04:59;6.13;;;1.50;;
59042;SDS011;44826;51.596;5.624;2024-03-25T04:07:25;7.20;;;1.80;;
59042;SDS011;44826;51.596;5.624;2024-03-25T04:09:57;6.60;;;2.13;;
59042;SDS011;44826;51.596;5.624;2024-03-25T04:12:22;6.80;;;1.47;;
59042;SDS011;44826;51.596;5.624;2024-03-25T04:14:48;10.50;;;2.30;;
59042;SDS011;44826;51.596;5.624;2024-03-25T04:17:14;3.83;;;1.80;;
59042;SDS011;44826;51.596;5.624;2024-03-25T04:19:39;9.17;;;2.33;;
59042;SDS011;44826;51.596;5.624;2024-03-25T04:22:04;9.53;;;2.50;;
59042;SDS011;44826;51.596;5.624;2024-03-25T04:24:30;7.27;;;2.47;;
59042;SDS011;44826;51.596;5.624;2024-03-25T04:26:55;8.70;;;2.60;;
59042;SDS011;44826;51.596;5.624;2024-03-25T04:29:20;8.40;;;2.63;;
59042;SDS011;44826;51.596;5.624;2024-03-25T04:31:46;9.90;;;2.80;;
59042;SDS011;44826;51.596;5.624;2024-03-25T04:34:11;7.87;;;2.57;;
59042;SDS011;44826;51.596;5.624;2024-03-25T04:36:37;9.30;;;2.50;;
59042;SDS011;44826;51.596;5.624;2024-03-25T04:39:02;7.60;;;2.63;;
59042;SDS011;44826;51.596;5.624;2024-03-25T04:41:27;8.03;;;2.37;;
59042;SDS011;44826;51.596;5.624;2024-03-25T04:43:53;13.10;;;3.63;;
59042;SDS011;44826;51.596;5.624;2024-03-25T04:46:18;8.37;;;3.27;;
59042;SDS011;44826;51.596;5.624;2024-03-25T04:48:43;7.13;;;2.87;;
59042;SDS011;44826;51.596;5.624;2024-03-25T04:51:09;8.50;;;2.47;;
59042;SDS011;44826;51.596;5.624;2024-03-25T04:53:35;6.10;;;2.30;;
59042;SDS011;44826;51.596;5.624;2024-03-25T04:56:00;9.57;;;3.20;;
59042;SDS011;44826;51.596;5.624;2024-03-25T04:58:25;9.97;;;2.67;;
59042;SDS011;44826;51.596;5.624;2024-03-25T05:00:51;8.90;;;3.07;;
59042;SDS011;44826;51.596;5.624;2024-03-25T05:03:16;8.43;;;2.90;;
59042;SDS011;44826;51.596;5.624;2024-03-25T05:05:41;8.30;;;2.97;;
59042;SDS011;44826;51.596;5.624;2024-03-25T05:08:07;7.10;;;2.87;;
59042;SDS011;44826;51.596;5.624;2024-03-25T05:10:33;9.00;;;3.13;;
59042;SDS011;44826;51.596;5.624;2024-03-25T05:12:59;8.50;;;3.17;;
59042;SDS011;44826;51.596;5.624;2024-03-25T05:15:24;11.13;;;4.10;;
59042;SDS011;44826;51.596;5.624;2024-03-25T05:17:50;10.23;;;3.63;;
59042;SDS011;44826;51.596;5.624;2024-03-25T05:20:15;8.63;;;3.67;;
59042;SDS011;44826;51.596;5.624;2024-03-25T05:22:41;8.13;;;3.77;;
59042;SDS011;44826;51.596;5.624;2024-03-25T05:25:06;7.10;;;3.73;;
59042;SDS011;44826;51.596;5.624;2024-03-25T05:27:32;9.83;;;4.23;;
59042;SDS011;44826;51.596;5.624;2024-03-25T05:29:57;11.37;;;4.10;;
59042;SDS011;44826;51.596;5.624;2024-03-25T05:32:23;11.27;;;4.40;;
59042;SDS011;44826;51.596;5.624;2024-03-25T05:34:48;8.33;;;3.87;;
59042;SDS011;44826;51.596;5.624;2024-03-25T05:37:14;8.03;;;3.97;;
59042;SDS011;44826;51.596;5.624;2024-03-25T05:39:39;9.67;;;4.23;;
59042;SDS011;44826;51.596;5.624;2024-03-25T05:42:04;9.50;;;4.50;;
59042;SDS011;44826;51.596;5.624;2024-03-25T05:44:30;11.40;;;4.07;;
59042;SDS011;44826;51.596;5.624;2024-03-25T05:46:55;9.23;;;4.17;;
59042;SDS011;44826;51.596;5.624;2024-03-25T05:49:20;9.60;;;4.73;;
59042;SDS011;44826;51.596;5.624;2024-03-25T05:51:46;10.40;;;4.33;;
59042;SDS011;44826;51.596;5.624;2024-03-25T05:54:11;10.37;;;4.33;;
59042;SDS011;44826;51.596;5.624;2024-03-25T05:56:36;9.73;;;4.30;;
59042;SDS011;44826;51.596;5.624;2024-03-25T05:59:02;9.40;;;4.60;;
59042;SDS011;44826;51.596;5.624;2024-03-25T06:01:27;12.90;;;5.20;;
59042;SDS011;44826;51.596;5.624;2024-03-25T06:03:52;12.00;;;5.30;;
59042;SDS011;44826;51.596;5.624;2024-03-25T06:06:18;9.47;;;5.00;;
59042;SDS011;44826;51.596;5.624;2024-03-25T06:08:43;8.70;;;4.50;;
59042;SDS011;44826;51.596;5.624;2024-03-25T06:11:09;9.50;;;4.90;;
59042;SDS011;44826;51.596;5.624;2024-03-25T06:13:34;13.73;;;5.30;;
59042;SDS011;44826;51.596;5.624;2024-03-25T06:16:00;9.47;;;5.07;;
59042;SDS011;44826;51.596;5.624;2024-03-25T06:18:25;8.77;;;4.83;;
59042;SDS011;44826;51.596;5.624;2024-03-25T06:20:50;10.23;;;4.80;;
59042;SDS011;44826;51.596;5.624;2024-03-25T06:23:25;10.43;;;5.10;;
59042;SDS011;44826;51.596;5.624;2024-03-25T06:25:51;9.90;;;5.03;;
59042;SDS011;44826;51.596;5.624;2024-03-25T06:28:18;8.23;;;4.83;;
59042;SDS011;44826;51.596;5.624;2024-03-25T06:30:45;13.33;;;6.20;;
59042;SDS011;44826;51.596;5.624;2024-03-25T06:33:29;9.40;;;5.40;;
59042;SDS011;44826;51.596;5.624;2024-03-25T06:36:13;12.43;;;5.83;;
59042;SDS011;44826;51.596;5.624;2024-03-25T06:38:38;10.83;;;5.60;;
59042;SDS011;44826;51.596;5.624;2024-03-25T06:41:04;12.47;;;5.13;;
59042;SDS011;44826;51.596;5.624;2024-03-25T06:43:29;11.73;;;5.60;;
59042;SDS011;44826;51.596;5.624;2024-03-25T06:45:54;11.30;;;4.83;;
59042;SDS011;44826;51.596;5.624;2024-03-25T06:48:20;11.40;;;4.97;;
59042;SDS011;44826;51.596;5.624;2024-03-25T06:50:54;10.10;;;5.07;;
59042;SDS011;44826;51.596;5.624;2024-03-25T06:53:23;10.43;;;4.97;;
59042;SDS011;44826;51.596;5.624;2024-03-25T06:55:53;10.57;;;4.67;;
59042;SDS011;44826;51.596;5.624;2024-03-25T06:58:23;11.37;;;4.83;;
59042;SDS011;44826;51.596;5.624;2024-03-25T07:00:50;10.77;;;4.77;;
59042;SDS011;44826;51.596;5.624;2024-03-25T07:03:19;13.23;;;5.40;;
59042;SDS011;44826;51.596;5.624;2024-03-25T07:05:46;11.73;;;5.10;;
59042;SDS011;44826;51.596;5.624;2024-03-25T07:08:12;12.43;;;5.40;;
59042;SDS011;44826;51.596;5.624;2024-03-25T07:10:38;11.70;;;5.67;;
59042;SDS011;44826;51.596;5.624;2024-03-25T07:13:03;11.67;;;5.47;;
59042;SDS011;44826;51.596;5.624;2024-03-25T07:15:30;14.07;;;5.77;;
59042;SDS011;44826;51.596;5.624;2024-03-25T07:17:56;12.93;;;5.50;;
59042;SDS011;44826;51.596;5.624;2024-03-25T07:20:21;12.53;;;6.13;;
59042;SDS011;44826;51.596;5.624;2024-03-25T07:22:47;12.07;;;5.57;;
59042;SDS011;44826;51.596;5.624;2024-03-25T07:25:13;11.73;;;5.93;;
59042;SDS011;44826;51.596;5.624;2024-03-25T07:27:38;12.43;;;5.67;;
59042;SDS011;44826;51.596;5.624;2024-03-25T07:30:04;10.60;;;5.47;;
59042;SDS011;44826;51.596;5.624;2024-03-25T07:32:31;13.40;;;5.87;;
59042;SDS011;44826;51.596;5.624;2024-03-25T07:34:57;10.53;;;5.53;;
59042;SDS011;44826;51.596;5.624;2024-03-25T07:37:22;11.37;;;5.60;;
59042;SDS011;44826;51.596;5.624;2024-03-25T07:39:48;15.17;;;5.47;;
59042;SDS011;44826;51.596;5.624;2024-03-25T07:42:13;9.93;;;5.33;;
59042;SDS011;44826;51.596;5.624;2024-03-25T07:44:39;11.50;;;5.43;;
59042;SDS011;44826;51.596;5.624;2024-03-25T07:47:04;11.23;;;5.60;;
59042;SDS011;44826;51.596;5.624;2024-03-25T07:49:30;10.93;;;5.03;;
59042;SDS011;44826;51.596;5.624;2024-03-25T07:51:59;11.63;;;5.70;;
59042;SDS011;44826;51.596;5.624;2024-03-25T07:54:28;12.43;;;6.00;;
59042;SDS011;44826;51.596;5.624;2024-03-25T07:56:53;11.20;;;5.38;;
59042;SDS011;44826;51.596;5.624;2024-03-25T07:59:19;11.40;;;5.80;;
59042;SDS011;44826;51.596;5.624;2024-03-25T08:01:44;12.75;;;5.43;;
59042;SDS011;44826;51.596;5.624;2024-03-25T08:04:10;11.40;;;5.60;;
59042;SDS011;44826;51.596;5.624;2024-03-25T08:06:35;11.57;;;5.30;;
59042;SDS011;44826;51.596;5.624;2024-03-25T08:09:00;10.73;;;5.68;;
59042;SDS011;44826;51.596;5.624;2024-03-25T08:11:26;11.80;;;5.97;;
59042;SDS011;44826;51.596;5.624;2024-03-25T08:13:52;12.18;;;5.50;;
59042;SDS011;44826;51.596;5.624;2024-03-25T08:16:17;11.48;;;5.28;;
59042;SDS011;44826;51.596;5.624;2024-03-25T08:18:42;11.48;;;5.40;;
59042;SDS011;44826;51.596;5.624;2024-03-25T08:21:08;11.70;;;5.55;;
59042;SDS011;44826;51.596;5.624;2024-03-25T08:23:33;14.23;;;5.78;;
59042;SDS011;44826;51.596;5.624;2024-03-25T08:25:58;13.45;;;6.22;;
59042;SDS011;44826;51.596;5.624;2024-03-25T08:28:25;11.10;;;5.70;;
59042;SDS011;44826;51.596;5.624;2024-03-25T08:30:51;11.90;;;5.90;;
59042;SDS011;44826;51.596;5.624;2024-03-25T08:33:16;11.73;;;5.50;;
59042;SDS011;44826;51.596;5.624;2024-03-25T08:35:41;14.18;;;5.95;;
59042;SDS011;44826;51.596;5.624;2024-03-25T08:38:07;12.75;;;6.22;;
59042;SDS011;44826;51.596;5.624;2024-03-25T08:40:32;16.55;;;6.63;;
59042;SDS011;44826;51.596;5.624;2024-03-25T08:42:57;13.45;;;6.43;;
59042;SDS011;44826;51.596;5.624;2024-03-25T08:45:23;15.00;;;6.18;;
59042;SDS011;44826;51.596;5.624;2024-03-25T08:47:48;16.33;;;6.70;;
59042;SDS011;44826;51.596;5.624;2024-03-25T08:50:13;14.68;;;6.80;;
59042;SDS011;44826;51.596;5.624;2024-03-25T08:52:38;16.83;;;6.78;;
59042;SDS011;44826;51.596;5.624;2024-03-25T08:55:05;13.50;;;6.88;;
59042;SDS011;44826;51.596;5.624;2024-03-25T08:57:31;15.38;;;7.10;;
59042;SDS011;44826;51.596;5.624;2024-03-25T08:59:56;17.75;;;7.13;;
59042;SDS011;44826;51.596;5.624;2024-03-25T09:02:21;19.27;;;7.38;;
59042;SDS011;44826;51.596;5.624;2024-03-25T09:04:47;17.23;;;7.18;;
59042;SDS011;44826;51.596;5.624;2024-03-25T09:07:13;15.35;;;7.35;;
59042;SDS011;44826;51.596;5.624;2024-03-25T09:09:39;18.10;;;7.93;;
59042;SDS011;44826;51.596;5.624;2024-03-25T09:12:23;17.17;;;7.47;;
59042;SDS011;44826;51.596;5.624;2024-03-25T09:14:48;16.30;;;7.55;;
59042;SDS011;44826;51.596;5.624;2024-03-25T09:17:13;17.40;;;7.97;;
59042;SDS011;44826;51.596;5.624;2024-03-25T09:19:39;17.17;;;7.97;;
59042;SDS011;44826;51.596;5.624;2024-03-25T09:22:04;18.15;;;7.97;;
59042;SDS011;44826;51.596;5.624;2024-03-25T09:24:29;18.90;;;7.88;;
59042;SDS011;44826;51.596;5.624;2024-03-25T09:26:55;19.98;;;8.50;;
59042;SDS011;44826;51.596;5.624;2024-03-25T09:29:20;16.52;;;7.78;;
59042;SDS011;44826;51.596;5.624;2024-03-25T09:31:45;16.58;;;7.95;;
59042;SDS011;44826;51.596;5.624;2024-03-25T09:34:10;16.58;;;7.55;;
59042;SDS011;44826;51.596;5.624;2024-03-25T09:36:36;16.77;;;7.03;;
59042;SDS011;44826;51.596;5.624;2024-03-25T09:39:01;19.20;;;7.63;;
59042;SDS011;44826;51.596;5.624;2024-03-25T09:41:29;15.30;;;6.88;;
59042;SDS011;44826;51.596;5.624;2024-03-25T09:43:59;19.92;;;7.32;;
59042;SDS011;44826;51.596;5.624;2024-03-25T09:46:25;13.80;;;6.20;;
59042;SDS011;44826;51.596;5.624;2024-03-25T09:48:52;14.32;;;6.53;;
59042;SDS011;44826;51.596;5.624;2024-03-25T09:51:18;14.75;;;6.03;;
59042;SDS011;44826;51.596;5.624;2024-03-25T09:53:44;14.85;;;6.25;;
59042;SDS011;44826;51.596;5.624;2024-03-25T09:56:10;14.60;;;6.47;;
59042;SDS011;44826;51.596;5.624;2024-03-25T09:58:37;15.93;;;7.25;;
59042;SDS011;44826;51.596;5.624;2024-03-25T10:01:04;15.35;;;6.32;;
59042;SDS011;44826;51.596;5.624;2024-03-25T10:03:29;15.02;;;6.50;;
59042;SDS011;44826;51.596;5.624;2024-03-25T10:05:54;12.77;;;5.82;;
59042;SDS011;44826;51.596;5.624;2024-03-25T10:08:23;13.57;;;5.85;;
59042;SDS011;44826;51.596;5.624;2024-03-25T10:10:51;11.65;;;5.55;;
59042;SDS011;44826;51.596;5.624;2024-03-25T10:13:17;11.43;;;5.40;;
59042;SDS011;44826;51.596;5.624;2024-03-25T10:15:42;13.27;;;5.47;;
59042;SDS011;44826;51.596;5.624;2024-03-25T10:18:07;12.45;;;5.57;;
59042;SDS011;44826;51.596;5.624;2024-03-25T10:20:36;11.90;;;5.53;;
59042;SDS011;44826;51.596;5.624;2024-03-25T10:23:01;12.77;;;5.65;;
59042;SDS011;44826;51.596;5.624;2024-03-25T10:25:29;9.90;;;4.93;;
59042;SDS011;44826;51.596;5.624;2024-03-25T10:30:25;11.60;;;4.70;;
59042;SDS011;44826;51.596;5.624;2024-03-25T10:33:03;12.65;;;4.70;;
59042;SDS011;44826;51.596;5.624;2024-03-25T10:35:31;9.52;;;4.25;;
59042;SDS011;44826;51.596;5.624;2024-03-25T10:38:01;9.35;;;4.50;;
59042;SDS011;44826;51.596;5.624;2024-03-25T10:40:29;7.90;;;3.70;;
59042;SDS011;44826;51.596;5.624;2024-03-25T10:43:13;7.55;;;3.30;;
59042;SDS011;44826;51.596;5.624;2024-03-25T10:45:47;8.05;;;3.25;;
59042;SDS011;44826;51.596;5.624;2024-03-25T10:48:27;10.45;;;3.17;;
59042;SDS011;44826;51.596;5.624;2024-03-25T10:50:56;7.50;;;3.42;;
59042;SDS011;44826;51.596;5.624;2024-03-25T10:53:25;7.38;;;3.38;;
59042;SDS011;44826;51.596;5.624;2024-03-25T10:55:53;7.35;;;3.15;;
59042;SDS011;44826;51.596;5.624;2024-03-25T10:58:19;7.22;;;3.40;;
59042;SDS011;44826;51.596;5.624;2024-03-25T11:00:47;7.38;;;3.47;;
59042;SDS011;44826;51.596;5.624;2024-03-25T11:03:13;7.88;;;3.30;;
59042;SDS011;44826;51.596;5.624;2024-03-25T11:05:39;5.22;;;3.00;;
59042;SDS011;44826;51.596;5.624;2024-03-25T11:13:09;6.75;;;2.97;;
59042;SDS011;44826;51.596;5.624;2024-03-25T11:15:35;7.67;;;3.13;;
59042;SDS011;44826;51.596;5.624;2024-03-25T11:18:03;9.00;;;3.63;;
59042;SDS011;44826;51.596;5.624;2024-03-25T11:20:28;7.32;;;3.45;;
59042;SDS011;44826;51.596;5.624;2024-03-25T11:22:53;7.20;;;3.08;;
59042;SDS011;44826;51.596;5.624;2024-03-25T11:25:22;6.90;;;3.00;;
59042;SDS011;44826;51.596;5.624;2024-03-25T11:27:47;6.55;;;3.08;;
59042;SDS011;44826;51.596;5.624;2024-03-25T11:30:13;6.22;;;3.28;;
59042;SDS011;44826;51.596;5.624;2024-03-25T11:32:43;5.78;;;3.03;;
59042;SDS011;44826;51.596;5.624;2024-03-25T11:35:09;5.95;;;2.88;;
59042;SDS011;44826;51.596;5.624;2024-03-25T11:37:39;8.07;;;2.95;;
59042;SDS011;44826;51.596;5.624;2024-03-25T11:40:05;6.10;;;3.00;;
59042;SDS011;44826;51.596;5.624;2024-03-25T11:42:32;8.32;;;3.30;;
59042;SDS011;44826;51.596;5.624;2024-03-25T11:44:59;7.63;;;2.85;;
59042;SDS011;44826;51.596;5.624;2024-03-25T11:47:25;5.88;;;2.80;;
59042;SDS011;44826;51.596;5.624;2024-03-25T11:49:51;5.78;;;2.70;;
59042;SDS011;44826;51.596;5.624;2024-03-25T11:52:16;7.25;;;3.03;;
59042;SDS011;44826;51.596;5.624;2024-03-25T11:54:42;9.30;;;3.53;;
59042;SDS011;44826;51.596;5.624;2024-03-25T11:57:07;6.00;;;2.78;;
59042;SDS011;44826;51.596;5.624;2024-03-25T11:59:33;5.43;;;2.50;;
59042;SDS011;44826;51.596;5.624;2024-03-25T12:01:59;5.70;;;2.78;;
59042;SDS011;44826;51.596;5.624;2024-03-25T12:04:24;7.00;;;2.90;;
59042;SDS011;44826;51.596;5.624;2024-03-25T12:06:54;6.60;;;3.03;;
59042;SDS011;44826;51.596;5.624;2024-03-25T12:09:22;8.02;;;3.10;;
59042;SDS011;44826;51.596;5.624;2024-03-25T12:12:06;6.45;;;3.10;;
59042;SDS011;44826;51.596;5.624;2024-03-25T12:14:32;8.63;;;2.90;;
59042;SDS011;44826;51.596;5.624;2024-03-25T12:16:58;5.18;;;3.10;;
59042;SDS011;44826;51.596;5.624;2024-03-25T12:19:26;5.70;;;2.85;;
59042;SDS011;44826;51.596;5.624;2024-03-25T12:21:58;7.82;;;3.20;;
59042;SDS011;44826;51.596;5.624;2024-03-25T12:24:25;5.53;;;2.90;;
59042;SDS011;44826;51.596;5.624;2024-03-25T12:26:51;5.47;;;3.08;;
59042;SDS011;44826;51.596;5.624;2024-03-25T12:29:16;6.20;;;3.20;;
59042;SDS011;44826;51.596;5.624;2024-03-25T12:31:42;6.35;;;3.05;;
59042;SDS011;44826;51.596;5.624;2024-03-25T12:34:12;6.35;;;2.95;;
59042;SDS011;44826;51.596;5.624;2024-03-25T12:36:37;5.17;;;2.73;;
59042;SDS011;44826;51.596;5.624;2024-03-25T12:39:03;5.20;;;2.70;;
59042;SDS011;44826;51.596;5.624;2024-03-25T12:41:28;5.68;;;2.72;;
59042;SDS011;44826;51.596;5.624;2024-03-25T12:43:54;5.30;;;2.53;;
59042;SDS011;44826;51.596;5.624;2024-03-25T12:46:19;6.38;;;2.38;;
59042;SDS011;44826;51.596;5.624;2024-03-25T12:48:45;5.68;;;2.63;;
59042;SDS011;44826;51.596;5.624;2024-03-25T12:51:14;5.35;;;2.50;;
59042;SDS011;44826;51.596;5.624;2024-03-25T12:53:40;5.45;;;2.88;;
59042;SDS011;44826;51.596;5.624;2024-03-25T12:56:06;6.10;;;2.45;;
59042;SDS011;44826;51.596;5.624;2024-03-25T12:58:31;5.32;;;2.50;;
59042;SDS011;44826;51.596;5.624;2024-03-25T13:00:57;6.05;;;2.53;;
59042;SDS011;44826;51.596;5.624;2024-03-25T13:03:22;4.85;;;2.47;;
59042;SDS011;44826;51.596;5.624;2024-03-25T13:05:48;4.28;;;2.47;;
59042;SDS011;44826;51.596;5.624;2024-03-25T13:08:13;5.90;;;2.55;;
59042;SDS011;44826;51.596;5.624;2024-03-25T13:10:38;5.60;;;2.38;;
59042;SDS011;44826;51.596;5.624;2024-03-25T13:13:04;3.70;;;2.03;;
59042;SDS011;44826;51.596;5.624;2024-03-25T13:15:30;4.70;;;2.15;;
59042;SDS011;44826;51.596;5.624;2024-03-25T13:17:56;5.60;;;2.17;;
59042;SDS011;44826;51.596;5.624;2024-03-25T13:20:21;3.67;;;2.20;;
59042;SDS011;44826;51.596;5.624;2024-03-25T13:22:48;3.50;;;2.10;;
59042;SDS011;44826;51.596;5.624;2024-03-25T13:25:14;4.00;;;2.10;;
59042;SDS011;44826;51.596;5.624;2024-03-25T13:27:39;3.67;;;2.05;;
59042;SDS011;44826;51.596;5.624;2024-03-25T13:30:05;5.32;;;2.00;;
59042;SDS011;44826;51.596;5.624;2024-03-25T13:32:31;4.28;;;1.75;;
59042;SDS011;44826;51.596;5.624;2024-03-25T13:34:56;4.07;;;1.70;;
59042;SDS011;44826;51.596;5.624;2024-03-25T13:37:22;2.97;;;1.40;;
59042;SDS011;44826;51.596;5.624;2024-03-25T13:39:47;4.25;;;1.60;;
59042;SDS011;44826;51.596;5.624;2024-03-25T13:42:15;4.00;;;1.52;;
59042;SDS011;44826;51.596;5.624;2024-03-25T13:44:40;3.92;;;1.67;;
59042;SDS011;44826;51.596;5.624;2024-03-25T13:47:05;4.60;;;1.90;;
59042;SDS011;44826;51.596;5.624;2024-03-25T13:49:33;3.70;;;1.67;;
59042;SDS011;44826;51.596;5.624;2024-03-25T13:51:59;2.95;;;1.83;;
59042;SDS011;44826;51.596;5.624;2024-03-25T13:54:25;5.03;;;2.28;;
59042;SDS011;44826;51.596;5.624;2024-03-25T13:56:51;4.47;;;2.10;;
59042;SDS011;44826;51.596;5.624;2024-03-25T13:59:17;4.80;;;1.73;;
59042;SDS011;44826;51.596;5.624;2024-03-25T14:01:42;4.22;;;2.00;;
59042;SDS011;44826;51.596;5.624;2024-03-25T14:04:07;5.65;;;2.00;;
59042;SDS011;44826;51.596;5.624;2024-03-25T14:06:33;4.97;;;1.92;;
59042;SDS011;44826;51.596;5.624;2024-03-25T14:09:01;4.30;;;1.85;;
59042;SDS011;44826;51.596;5.624;2024-03-25T14:11:29;3.45;;;1.80;;
59042;SDS011;44826;51.596;5.624;2024-03-25T14:13:54;3.03;;;1.50;;
59042;SDS011;44826;51.596;5.624;2024-03-25T14:16:20;2.88;;;1.70;;
59042;SDS011;44826;51.596;5.624;2024-03-25T14:18:45;4.20;;;1.70;;
59042;SDS011;44826;51.596;5.624;2024-03-25T14:21:10;3.13;;;1.60;;
59042;SDS011;44826;51.596;5.624;2024-03-25T14:23:35;2.75;;;1.60;;
59042;SDS011;44826;51.596;5.624;2024-03-25T14:26:01;3.00;;;1.75;;
59042;SDS011;44826;51.596;5.624;2024-03-25T14:28:26;3.78;;;1.67;;
59042;SDS011;44826;51.596;5.624;2024-03-25T14:30:51;2.50;;;1.50;;
59042;SDS011;44826;51.596;5.624;2024-03-25T14:33:17;2.75;;;1.40;;
59042;SDS011;44826;51.596;5.624;2024-03-25T14:35:42;3.85;;;1.50;;
59042;SDS011;44826;51.596;5.624;2024-03-25T14:38:08;3.58;;;1.50;;
59042;SDS011;44826;51.596;5.624;2024-03-25T14:40:37;3.08;;;1.48;;
59042;SDS011;44826;51.596;5.624;2024-03-25T14:43:05;3.38;;;1.45;;
59042;SDS011;44826;51.596;5.624;2024-03-25T14:45:30;3.88;;;1.60;;